sensor_id;sensor_type;location;lat;lon;timestamp;pressure;altitude;pressure_sealevel;temperature;humidity
26839;BME280;40088;51.214;6.786;2023-05-10T00:00:14;100546.88;;;18.34;64.38
26839;BME280;40088;51.214;6.786;2023-05-10T00:10:15;100536.91;;;18.33;64.25
26839;BME280;40088;51.214;6.786;2023-05-10T00:20:15;100536.91;;;18.33;64.48
26839;BME280;40088;51.214;6.786;2023-05-10T00:30:16;100536.91;;;18.33;64.48
26839;BME280;40088;51.214;6.786;2023-05-10T00:40:16;100536.91;;;18.33;64.35
26839;BME280;40088;51.214;6.786;2023-05-10T00:50:17;100531.41;;;18.33;64.56
26839;BME280;40088;51.214;6.786;2023-05-10T01:00:19;100546.25;;;18.32;64.37
26839;BME280;40088;51.214;6.786;2023-05-10T01:10:19;100539.66;;;18.33;64.40
26839;BME280;40088;51.214;6.786;2023-05-10T01:20:20;100553.47;;;18.33;64.46
26839;BME280;40088;51.214;6.786;2023-05-10T01:40:42;100551.78;;;18.32;64.47
26839;BME280;40088;51.214;6.786;2023-05-10T01:50:49;100560.03;;;18.32;64.35
26839;BME280;40088;51.214;6.786;2023-05-10T02:00:52;100555.38;;;18.32;64.57
26839;BME280;40088;51.214;6.786;2023-05-10T02:10:54;100558.13;;;18.32;64.47
26839;BME280;40088;51.214;6.786;2023-05-10T02:20:56;100562.81;;;18.32;64.39
26839;BME280;40088;51.214;6.786;2023-05-10T02:30:58;100573.84;;;18.32;64.49
26839;BME280;40088;51.214;6.786;2023-05-10T02:40:59;100575.75;;;18.31;64.41
26839;BME280;40088;51.214;6.786;2023-05-10T02:51:04;100573.00;;;18.31;64.34
26839;BME280;40088;51.214;6.786;2023-05-10T03:01:05;100574.91;;;18.31;64.41
26839;BME280;40088;51.214;6.786;2023-05-10T03:21:17;100581.25;;;18.31;64.45
26839;BME280;40088;51.214;6.786;2023-05-10T03:31:18;100597.81;;;18.31;64.27
26839;BME280;40088;51.214;6.786;2023-05-10T03:41:19;100600.56;;;18.31;64.29
26839;BME280;40088;51.214;6.786;2023-05-10T03:51:20;100601.41;;;18.32;64.35
26839;BME280;40088;51.214;6.786;2023-05-10T04:01:20;100612.47;;;18.32;63.92
26839;BME280;40088;51.214;6.786;2023-05-10T04:11:21;100615.44;;;18.30;64.22
26839;BME280;40088;51.214;6.786;2023-05-10T04:21:22;100617.97;;;18.32;64.21
26839;BME280;40088;51.214;6.786;2023-05-10T04:31:22;100605.25;;;18.31;64.20
26839;BME280;40088;51.214;6.786;2023-05-10T04:41:22;100606.09;;;18.31;64.33
26839;BME280;40088;51.214;6.786;2023-05-10T04:51:22;100617.97;;;18.32;64.37
26839;BME280;40088;51.214;6.786;2023-05-10T05:01:23;100629.00;;;18.32;64.25
26839;BME280;40088;51.214;6.786;2023-05-10T05:11:23;100632.84;;;18.31;64.14
26839;BME280;40088;51.214;6.786;2023-05-10T05:21:23;100645.56;;;18.32;64.14
26839;BME280;40088;51.214;6.786;2023-05-10T05:31:25;100644.72;;;18.31;64.30
26839;BME280;40088;51.214;6.786;2023-05-10T05:41:25;100655.75;;;18.31;64.10
26839;BME280;40088;51.214;6.786;2023-05-10T05:51:26;100671.44;;;18.31;64.30
26839;BME280;40088;51.214;6.786;2023-05-10T06:01:26;100678.66;;;18.32;64.19
26839;BME280;40088;51.214;6.786;2023-05-10T06:11:26;100701.56;;;18.32;64.11
26839;BME280;40088;51.214;6.786;2023-05-10T06:21:26;100694.16;;;18.33;64.01
26839;BME280;40088;51.214;6.786;2023-05-10T06:31:27;100718.13;;;18.32;64.13
26839;BME280;40088;51.214;6.786;2023-05-10T06:41:27;100717.28;;;18.32;64.04
26839;BME280;40088;51.214;6.786;2023-05-10T06:51:27;100720.03;;;18.32;64.17
26839;BME280;40088;51.214;6.786;2023-05-10T07:01:28;100734.69;;;18.32;64.09
26839;BME280;40088;51.214;6.786;2023-05-10T07:11:28;100732.97;;;18.31;64.02
26839;BME280;40088;51.214;6.786;2023-05-10T07:21:29;100741.88;;;18.33;64.17
26839;BME280;40088;51.214;6.786;2023-05-10T07:31:29;100730.22;;;18.31;64.07
26839;BME280;40088;51.214;6.786;2023-05-10T07:41:29;100733.84;;;18.32;64.09
26839;BME280;40088;51.214;6.786;2023-05-10T07:51:30;100751.22;;;18.32;64.11
26839;BME280;40088;51.214;6.786;2023-05-10T08:01:31;100759.50;;;18.32;63.86
26839;BME280;40088;51.214;6.786;2023-05-10T08:11:34;100757.59;;;18.33;63.88
26839;BME280;40088;51.214;6.786;2023-05-10T08:21:35;100770.53;;;18.32;63.99
26839;BME280;40088;51.214;6.786;2023-05-10T08:31:36;100771.59;;;18.31;64.01
26839;BME280;40088;51.214;6.786;2023-05-10T08:41:37;100782.44;;;18.33;63.93
26839;BME280;40088;51.214;6.786;2023-05-10T08:51:43;100794.31;;;18.33;63.94
26839;BME280;40088;51.214;6.786;2023-05-10T09:01:44;100811.91;;;18.32;64.02
26839;BME280;40088;51.214;6.786;2023-05-10T09:11:45;100822.94;;;18.32;63.86
26839;BME280;40088;51.214;6.786;2023-05-10T09:21:46;100822.09;;;18.32;63.96
26839;BME280;40088;51.214;6.786;2023-05-10T09:31:51;100828.47;;;18.32;63.85
26839;BME280;40088;51.214;6.786;2023-05-10T09:41:51;100845.03;;;18.32;63.84
26839;BME280;40088;51.214;6.786;2023-05-10T09:52:05;100847.56;;;18.34;63.86
26839;BME280;40088;51.214;6.786;2023-05-10T10:02:06;100848.63;;;18.33;63.69
26839;BME280;40088;51.214;6.786;2023-05-10T10:12:06;100851.38;;;18.33;63.61
26839;BME280;40088;51.214;6.786;2023-05-10T10:22:06;100861.38;;;18.34;63.71
26839;BME280;40088;51.214;6.786;2023-05-10T10:42:45;100874.31;;;18.33;63.73
26839;BME280;40088;51.214;6.786;2023-05-10T10:52:46;100865.19;;;18.33;63.94
26839;BME280;40088;51.214;6.786;2023-05-10T11:03:31;100861.38;;;18.34;63.56
26839;BME280;40088;51.214;6.786;2023-05-10T11:13:32;100873.47;;;18.33;63.68
26839;BME280;40088;51.214;6.786;2023-05-10T11:23:47;100878.97;;;18.33;63.54
26839;BME280;40088;51.214;6.786;2023-05-10T11:33:53;100888.09;;;18.33;63.42
26839;BME280;40088;51.214;6.786;2023-05-10T11:43:54;100897.44;;;18.32;63.41
26839;BME280;40088;51.214;6.786;2023-05-10T11:53:56;100895.53;;;18.33;63.56
26839;BME280;40088;51.214;6.786;2023-05-10T12:03:57;100894.69;;;18.32;63.46
26839;BME280;40088;51.214;6.786;2023-05-10T12:13:59;100901.03;;;18.33;63.61
26839;BME280;40088;51.214;6.786;2023-05-10T12:24:02;100898.28;;;18.33;63.31
26839;BME280;40088;51.214;6.786;2023-05-10T12:34:02;100901.03;;;18.33;63.43
26839;BME280;40088;51.214;6.786;2023-05-10T12:44:02;100900.19;;;18.32;63.53
26839;BME280;40088;51.214;6.786;2023-05-10T12:54:03;100914.63;;;18.34;63.39
26839;BME280;40088;51.214;6.786;2023-05-10T13:04:03;100912.09;;;18.33;63.39
26839;BME280;40088;51.214;6.786;2023-05-10T13:14:04;100920.34;;;18.33;63.41
26839;BME280;40088;51.214;6.786;2023-05-10T13:24:04;100931.19;;;18.34;63.44
26839;BME280;40088;51.214;6.786;2023-05-10T13:34:05;100927.56;;;18.34;63.22
26839;BME280;40088;51.214;6.786;2023-05-10T13:44:06;100919.28;;;18.34;63.40
26839;BME280;40088;51.214;6.786;2023-05-10T13:54:06;100913.78;;;18.34;63.34
26839;BME280;40088;51.214;6.786;2023-05-10T14:04:07;100912.94;;;18.33;63.25
26839;BME280;40088;51.214;6.786;2023-05-10T14:14:10;100898.06;;;18.34;63.27
26839;BME280;40088;51.214;6.786;2023-05-10T14:24:10;100899.13;;;18.33;63.29
26839;BME280;40088;51.214;6.786;2023-05-10T14:34:10;100898.06;;;18.34;63.16
26839;BME280;40088;51.214;6.786;2023-05-10T14:44:11;100901.69;;;18.35;63.20
26839;BME280;40088;51.214;6.786;2023-05-10T14:54:11;100897.22;;;18.34;63.23
26839;BME280;40088;51.214;6.786;2023-05-10T15:04:11;100899.81;;;18.35;63.32
26839;BME280;40088;51.214;6.786;2023-05-10T15:14:13;100889.81;;;18.34;63.28
26839;BME280;40088;51.214;6.786;2023-05-10T15:24:13;100891.72;;;18.34;63.38
26839;BME280;40088;51.214;6.786;2023-05-10T15:34:15;100904.44;;;18.35;63.25
26839;BME280;40088;51.214;6.786;2023-05-10T15:44:15;100903.59;;;18.34;63.37
26839;BME280;40088;51.214;6.786;2023-05-10T15:54:15;100916.34;;;18.35;63.22
26839;BME280;40088;51.214;6.786;2023-05-10T16:04:16;100916.34;;;18.35;63.13
26839;BME280;40088;51.214;6.786;2023-05-10T16:14:17;100926.50;;;18.35;63.11
26839;BME280;40088;51.214;6.786;2023-05-10T16:24:17;100937.56;;;18.35;63.13
26839;BME280;40088;51.214;6.786;2023-05-10T16:34:17;100960.50;;;18.35;63.16
26839;BME280;40088;51.214;6.786;2023-05-10T16:44:23;100972.56;;;18.34;63.07
26839;BME280;40088;51.214;6.786;2023-05-10T16:54:23;100981.69;;;18.35;63.21
26839;BME280;40088;51.214;6.786;2023-05-10T17:04:23;100985.34;;;18.35;63.20
26839;BME280;40088;51.214;6.786;2023-05-10T17:14:23;100981.69;;;18.35;63.13
26839;BME280;40088;51.214;6.786;2023-05-10T17:24:24;100987.22;;;18.35;63.01
26839;BME280;40088;51.214;6.786;2023-05-10T17:34:27;101002.06;;;18.34;63.08
26839;BME280;40088;51.214;6.786;2023-05-10T17:44:27;101013.94;;;18.34;63.04
26839;BME280;40088;51.214;6.786;2023-05-10T17:54:27;101012.03;;;18.35;63.04
26839;BME280;40088;51.214;6.786;2023-05-10T18:04:27;101016.69;;;18.34;62.96
26839;BME280;40088;51.214;6.786;2023-05-10T18:14:28;101028.59;;;18.35;62.93
26839;BME280;40088;51.214;6.786;2023-05-10T18:24:28;101018.44;;;18.35;62.77
26839;BME280;40088;51.214;6.786;2023-05-10T18:34:28;101025.84;;;18.35;62.93
26839;BME280;40088;51.214;6.786;2023-05-10T18:44:29;101043.28;;;18.35;62.90
26839;BME280;40088;51.214;6.786;2023-05-10T18:54:29;101048.78;;;18.35;62.99
26839;BME280;40088;51.214;6.786;2023-05-10T19:04:29;101046.03;;;18.35;62.93
26839;BME280;40088;51.214;6.786;2023-05-10T19:14:30;101048.78;;;18.35;62.78
26839;BME280;40088;51.214;6.786;2023-05-10T19:24:31;101055.16;;;18.36;62.97
26839;BME280;40088;51.214;6.786;2023-05-10T19:34:32;101067.22;;;18.35;62.95
26839;BME280;40088;51.214;6.786;2023-05-10T19:44:32;101070.84;;;18.35;62.93
26839;BME280;40088;51.214;6.786;2023-05-10T19:54:32;101081.00;;;18.35;62.66
26839;BME280;40088;51.214;6.786;2023-05-10T20:04:33;101081.00;;;18.35;62.96
26839;BME280;40088;51.214;6.786;2023-05-10T20:14:33;101088.25;;;18.36;62.78
26839;BME280;40088;51.214;6.786;2023-05-10T20:24:34;101079.13;;;18.35;62.99
26839;BME280;40088;51.214;6.786;2023-05-10T20:34:35;101083.78;;;18.35;62.92
26839;BME280;40088;51.214;6.786;2023-05-10T20:44:35;101078.25;;;18.35;62.84
26839;BME280;40088;51.214;6.786;2023-05-10T20:54:36;101075.50;;;18.35;62.97
26839;BME280;40088;51.214;6.786;2023-05-10T21:04:36;101084.81;;;18.34;62.67
26839;BME280;40088;51.214;6.786;2023-05-10T21:14:36;101083.78;;;18.35;62.82
26839;BME280;40088;51.214;6.786;2023-05-10T21:24:37;101090.34;;;18.34;62.91
26839;BME280;40088;51.214;6.786;2023-05-10T21:34:37;101079.31;;;18.34;62.77
26839;BME280;40088;51.214;6.786;2023-05-10T21:44:37;101085.69;;;18.34;62.97
26839;BME280;40088;51.214;6.786;2023-05-10T21:54:38;101091.19;;;18.34;62.96
26839;BME280;40088;51.214;6.786;2023-05-10T22:04:38;101089.28;;;18.35;62.89
26839;BME280;40088;51.214;6.786;2023-05-10T22:14:38;101086.53;;;18.35;63.13
26839;BME280;40088;51.214;6.786;2023-05-10T22:24:39;101085.69;;;18.34;63.00
26839;BME280;40088;51.214;6.786;2023-05-10T22:34:39;101097.56;;;18.35;63.13
26839;BME280;40088;51.214;6.786;2023-05-10T22:44:42;101092.03;;;18.35;63.13
26839;BME280;40088;51.214;6.786;2023-05-10T22:54:43;101097.56;;;18.35;63.13
26839;BME280;40088;51.214;6.786;2023-05-10T23:04:43;101104.13;;;18.34;62.99
26839;BME280;40088;51.214;6.786;2023-05-10T23:14:44;101112.41;;;18.34;63.13
26839;BME280;40088;51.214;6.786;2023-05-10T23:24:47;101111.34;;;18.35;63.04
26839;BME280;40088;51.214;6.786;2023-05-10T23:34:47;101114.13;;;18.35;63.24
26839;BME280;40088;51.214;6.786;2023-05-10T23:44:49;101102.22;;;18.34;63.24
26839;BME280;40088;51.214;6.786;2023-05-10T23:54:50;101110.50;;;18.34;63.23
